Huvudsida
METAR-TAF:

METAR-TAF

Flygplatser :

Altenstadt, Tyskland

latitud: 47-50N, longitud: 010-52E, höjd: 739 m

Aktuellt väderrapport

Denna rapport gjordes för 28 minuter sedan, klockan 13:20 UTC
Vind 18 kt från väst
Temperatur 13°C
Fuktighet 28%
Tryck 1026 hPa

METAR: ETHA 221320Z AUTO 26018KT //// // ////// 13/M05 Q1026 ///

Tid: 14:48 (13:48 UTC)

Väderprognos

Denna rapport gjordes för 27 timmar och 34 minuter sedan, klockan 10:14 UTC
Prognos gäller från 21 kl. 09 UTC till 21 kl. 18 UTC
Vind 15 kt från väst i byarna ända upp till 25 kt
Sikt 10 km eller mer
Få moln på en höjd av 3000 ft
Spridda moln på en höjd av 5000 ft
Brutna moln på en höjd av 25000 ft
Temporärt
från 21 kl. 09 UTC till 21 kl. 12 UTC
Vind 8 kt från väst/sydväst
Sikt: 1120 m
Spridda moln på en höjd av 2500 ft
Brutna moln på en höjd av 5000 ft

TAF: ETHA 211014Z 2109/2118 26015G25KT 9999 NSW FEW030 SCT050 BKN250 TEMPO 2109/2112 24008KT 9999 NSW SCT025 BKN050 CANCEL 1120

Aktuella väderrapporter och prognoser från 4000 flygplatser (METAR- och TAF-rapporter).

De tillgängliga stationerna syns som gula och röda prickar på kartan.

För musen över prickarna för att se namnen på stationerna.

Klicka sedan för att få väderrapporter och prognoser.

För att ändra kartan: Klicka på de gröna knapparna med ett svart kors på för att zooma in; den gröna knappen med ett streck på för att zooma ut; eller på de gröna pilarna för angränsande kartor.


METAR-TAF: